createdAt,value
2022-12-26T08:01:07.779Z,99465.91
2022-12-26T08:03:38.556Z,99455.25
2022-12-26T08:06:29.618Z,99450.16
2022-12-26T08:09:01.108Z,99451.16
2022-12-26T08:15:18.586Z,99453.97
2022-12-26T08:18:49.096Z,99460.66
2022-12-26T08:21:29.985Z,99453.88
2022-12-26T08:24:52.619Z,99452.38
2022-12-26T08:27:22.840Z,99465.53
2022-12-26T08:30:25.333Z,99474.59
2022-12-26T08:36:53.364Z,99468.16
2022-12-26T08:39:36.696Z,99455.41
2022-12-26T08:42:05.303Z,99469.03
2022-12-26T08:44:53.132Z,99462.59
2022-12-26T08:47:23.055Z,99480.47
2022-12-26T08:49:53.398Z,99464.34
2022-12-26T08:52:21.499Z,99478.41
2022-12-26T08:55:01.287Z,99484.50
2022-12-26T08:57:30.277Z,99499.28
2022-12-26T08:59:57.704Z,99487.97
2022-12-26T09:02:25.644Z,99495.50
2022-12-26T09:04:52.263Z,99498.00
2022-12-26T09:07:19.204Z,99504.19
2022-12-26T09:09:51.323Z,99490.16
2022-12-26T09:12:19.162Z,99498.88
2022-12-26T09:14:50.316Z,99496.91
2022-12-26T09:17:20.240Z,99494.41
2022-12-26T09:19:56.231Z,99508.44
2022-12-26T09:22:33.405Z,99502.34
2022-12-26T09:25:04.341Z,99516.94
2022-12-26T09:30:51.010Z,99496.38
2022-12-26T09:33:20.213Z,99504.66
2022-12-26T09:35:49.609Z,99499.94
2022-12-26T09:38:16.560Z,99497.91
2022-12-26T09:41:20.243Z,99502.03
2022-12-26T09:43:57.628Z,99533.59
2022-12-26T09:49:59.817Z,99539.28
2022-12-26T09:52:36.921Z,99548.66
2022-12-26T09:55:24.077Z,99549.50
2022-12-26T09:58:05.862Z,99543.84
2022-12-26T10:01:02.433Z,99540.06
2022-12-26T10:03:29.719Z,99545.81
2022-12-26T10:06:16.826Z,99564.41
2022-12-26T10:12:28.112Z,99548.22
2022-12-26T10:15:27.720Z,99525.75
2022-12-26T10:18:21.270Z,99535.66
2022-12-26T10:21:22.419Z,99519.84
2022-12-26T10:24:04.005Z,99540.81
2022-12-26T10:26:33.612Z,99541.88
2022-12-26T10:38:27.579Z,99511.50
2022-12-26T10:41:39.546Z,99515.19
2022-12-26T10:44:28.008Z,99518.88
2022-12-26T10:47:20.003Z,99513.03
2022-12-26T10:49:47.984Z,99509.31
2022-12-26T10:52:16.701Z,99518.09
2022-12-26T10:55:29.345Z,99525.06
2022-12-26T10:57:42.569Z,99523.34
2022-12-26T11:00:16.652Z,99521.91
2022-12-26T11:02:45.459Z,99533.25
2022-12-26T11:05:27.426Z,99531.97
2022-12-26T11:08:09.285Z,99531.97
2022-12-26T11:10:36.092Z,99524.66
2022-12-26T11:13:06.255Z,99526.38
2022-12-26T11:15:35.763Z,99533.97
2022-12-26T11:18:19.197Z,99520.28
2022-12-26T11:20:50.843Z,99508.72
2022-12-26T11:23:33.775Z,99516.19
2022-12-26T11:26:02.843Z,99525.09
2022-12-26T11:28:33.965Z,99503.03
2022-12-26T11:34:53.089Z,99502.25
2022-12-26T11:37:26.442Z,99516.81
2022-12-26T11:39:59.258Z,99519.13
2022-12-26T11:42:31.348Z,99520.34
2022-12-26T11:45:10.368Z,99512.97
2022-12-26T11:47:38.420Z,99522.81
2022-12-26T11:50:17.410Z,99491.41
2022-12-26T11:52:52.219Z,99511.75
2022-12-26T11:55:37.241Z,99517.28
2022-12-26T11:58:19.545Z,99505.19
2022-12-26T12:07:57.817Z,99498.81
2022-12-26T12:11:09.287Z,99514.72
2022-12-26T12:14:08.010Z,99526.38
2022-12-26T12:23:59.794Z,99499.38
2022-12-26T12:36:46.049Z,99522.09
2022-12-26T12:42:55.327Z,99524.69
2022-12-26T12:52:57.213Z,99518.53
2022-12-26T12:55:53.251Z,99502.72
2022-12-26T12:58:33.541Z,99518.88
2022-12-26T14:53:51.550Z,99692.53
2022-12-26T14:56:43.623Z,99678.44
2022-12-26T14:59:34.269Z,99689.06
2022-12-26T15:02:43.193Z,99662.09
2022-12-26T15:05:29.386Z,99683.22
2022-12-26T15:08:51.722Z,99684.19
2022-12-26T15:15:27.555Z,99692.78
2022-12-26T15:33:21.213Z,99724.63
2022-12-26T15:36:06.022Z,99726.81
2022-12-26T15:41:47.363Z,99730.16
2022-12-26T15:47:23.315Z,99758.72
2022-12-26T15:50:19.114Z,99792.66
2022-12-26T15:52:53.159Z,99798.19
2022-12-26T15:55:47.247Z,99803.72
2022-12-26T15:58:50.140Z,99810.59
2022-12-26T16:03:53.487Z,99811.38
2022-12-26T16:04:44.427Z,99816.47
2022-12-26T16:07:42.241Z,99825.56
2022-12-26T16:10:39.398Z,99806.22
2022-12-26T16:13:35.374Z,99798.41
2022-12-26T16:16:24.049Z,99818.94
2022-12-26T16:19:19.235Z,99831.63
2022-12-26T16:21:56.943Z,99823.41
2022-12-26T16:24:41.201Z,99848.34
2022-12-26T16:27:23.060Z,99852.88
2022-12-26T16:29:53.211Z,99828.59
2022-12-26T16:32:32.228Z,99856.06
2022-12-26T16:35:05.325Z,99862.78
2022-12-26T16:37:34.523Z,99857.75
2022-12-26T16:40:16.325Z,99874.09
2022-12-26T16:42:54.382Z,99864.44
2022-12-26T16:45:24.220Z,99876.47
2022-12-26T16:47:53.433Z,99851.81
2022-12-26T16:50:24.345Z,99889.34
2022-12-26T16:53:03.053Z,99895.16
2022-12-26T16:55:40.288Z,99880.25
2022-12-26T16:58:23.242Z,99886.06
2022-12-26T17:01:00.317Z,99877.91
2022-12-26T17:03:34.280Z,99898.31
2022-12-26T17:06:06.876Z,99903.78
2022-12-26T17:08:43.761Z,99912.88
2022-12-26T17:11:11.380Z,99908.19
2022-12-26T17:13:40.521Z,99923.78
2022-12-26T17:16:14.635Z,99930.28
2022-12-26T17:18:49.237Z,99934.69
2022-12-26T17:21:20.823Z,99943.53
2022-12-26T17:24:11.685Z,99928.19
2022-12-26T17:26:40.258Z,99949.53
2022-12-26T17:30:06.656Z,99943.41
2022-12-26T17:32:42.466Z,99956.31
2022-12-26T17:35:14.744Z,99952.91
2022-12-26T17:37:46.215Z,99945.22
2022-12-26T17:43:40.197Z,99947.97
2022-12-26T17:46:12.456Z,99967.44
2022-12-26T17:48:41.443Z,99976.00
2022-12-26T17:51:15.422Z,99979.06
2022-12-26T17:54:08.174Z,99979.81
2022-12-26T17:56:35.153Z,99991.59
2022-12-26T17:59:12.557Z,99983.16
2022-12-26T18:01:42.394Z,99990.53
2022-12-26T18:04:10.891Z,99998.22
2022-12-26T18:06:39.182Z,100006.59
2022-12-26T18:09:07.546Z,100003.44
2022-12-26T18:11:35.682Z,100012.28
2022-12-26T18:14:05.932Z,100010.94
2022-12-26T18:16:46.586Z,99993.88
2022-12-26T18:19:23.119Z,100017.69
2022-12-26T18:22:11.909Z,100018.13
2022-12-26T18:24:44.987Z,100024.44
2022-12-26T18:27:21.172Z,100027.66
2022-12-26T18:29:51.887Z,100033.63
2022-12-26T18:32:27.044Z,100043.53
2022-12-26T18:35:01.250Z,100057.84
2022-12-26T18:37:32.376Z,100059.72
2022-12-26T18:40:00.993Z,100057.34
2022-12-26T18:42:28.751Z,100065.47
2022-12-26T18:44:57.587Z,100070.09
2022-12-26T18:47:26.727Z,100065.91
2022-12-26T18:50:16.016Z,100073.22
2022-12-26T18:52:49.952Z,100066.88
2022-12-26T18:55:26.780Z,100082.06
2022-12-26T18:57:55.075Z,100075.16
2022-12-26T19:00:27.562Z,100094.88
2022-12-26T19:02:56.544Z,100098.69
2022-12-26T19:05:30.753Z,100099.13
2022-12-26T19:08:05.240Z,100100.28
2022-12-26T19:10:35.716Z,100109.13
2022-12-26T19:13:06.607Z,100112.78
2022-12-26T19:15:37.135Z,100118.81
2022-12-26T19:18:04.274Z,100114.50
2022-12-26T19:20:50.021Z,100124.94
2022-12-26T19:23:19.302Z,100129.59
2022-12-26T19:26:14.203Z,100146.31
2022-12-26T19:28:45.978Z,100140.34
2022-12-26T19:31:21.115Z,100141.56
2022-12-26T19:34:05.932Z,100131.28
2022-12-26T19:37:10.158Z,100158.69
2022-12-26T19:40:03.380Z,100141.94
2022-12-26T19:42:32.114Z,100152.88
2022-12-26T19:45:17.233Z,100161.84
2022-12-26T19:48:25.539Z,100183.22
2022-12-26T19:50:53.620Z,100179.13
2022-12-26T19:53:34.332Z,100190.75
2022-12-26T19:59:52.835Z,100182.22
2022-12-26T20:02:23.576Z,100187.66
2022-12-26T20:05:16.052Z,100187.69
2022-12-26T20:07:52.520Z,100188.94
2022-12-26T20:10:39.277Z,100202.09
2022-12-26T20:13:32.664Z,100209.28
2022-12-26T21:41:10.457Z,100276.66
2022-12-26T21:56:10.710Z,100290.25
2022-12-26T22:02:08.154Z,100302.16
2022-12-26T22:04:35.078Z,100309.66
2022-12-26T22:07:01.716Z,100317.03
2022-12-26T22:09:28.991Z,100317.97
2022-12-26T22:11:57.099Z,100319.22
2022-12-26T22:14:23.683Z,100321.72
2022-12-26T22:16:54.784Z,100329.41
2022-12-26T22:19:21.703Z,100327.59
2022-12-26T22:21:48.355Z,100330.31
2022-12-26T22:24:14.933Z,100337.47
2022-12-26T22:26:41.638Z,100336.66
2022-12-26T22:29:12.704Z,100339.53
2022-12-26T22:31:41.226Z,100335.97
2022-12-26T22:34:13.569Z,100334.38
2022-12-26T22:36:47.605Z,100352.16
2022-12-26T22:39:15.468Z,100354.69
2022-12-26T22:41:41.990Z,100354.84
2022-12-26T22:44:10.076Z,100348.78
2022-12-26T22:46:36.628Z,100347.91
2022-12-26T22:49:08.638Z,100355.88
2022-12-26T22:51:35.281Z,100346.25
2022-12-26T22:54:02.035Z,100341.72
2022-12-26T22:56:29.135Z,100357.03
2022-12-26T22:58:57.566Z,100356.06
2022-12-26T23:01:25.864Z,100361.44
2022-12-26T23:03:52.482Z,100367.03
2022-12-26T23:06:21.673Z,100366.91
2022-12-26T23:08:49.465Z,100364.13
2022-12-26T23:11:16.765Z,100362.63
2022-12-26T23:13:46.832Z,100360.81
2022-12-26T23:16:24.224Z,100364.53
2022-12-26T23:18:56.367Z,100364.53
2022-12-26T23:21:26.757Z,100365.41
2022-12-26T23:24:10.033Z,100371.53
2022-12-26T23:26:36.594Z,100366.38
2022-12-26T23:29:03.571Z,100367.19
2022-12-26T23:31:30.361Z,100372.38
2022-12-26T23:33:58.201Z,100377.59
2022-12-26T23:36:24.817Z,100375.06
2022-12-26T23:38:52.397Z,100377.88
2022-12-26T23:41:19.354Z,100382.88
2022-12-26T23:43:45.870Z,100386.72
2022-12-26T23:46:12.872Z,100392.69
2022-12-26T23:48:39.499Z,100389.88
2022-12-26T23:51:18.943Z,100388.44
2022-12-26T23:53:45.436Z,100386.63
2022-12-26T23:56:12.179Z,100394.34
2022-12-26T23:58:38.959Z,100389.94
